Time;durP1;ratioP1;P1;durP2;ratioP2;P2;SDS_P1;SDS_P2;PMS_P1;PMS_P2;Temp;Humidity;BMP_temperature;BMP_pressure;BME280_temperature;BME280_humidity;BME280_pressure;Samples;Min_cycle;Max_cycle;Signal;HPM_P1;HPM_P2
2024/01/22 00:01:05;;;;;;;9.20;4.00;;;6.50;82.10;;;;;;5054891;28;20260;-72
2024/01/22 00:03:52;;;;;;;6.47;3.13;;;6.40;80.50;;;;;;5068236;28;20522;-72
2024/01/22 00:06:40;;;;;;;8.50;4.27;;;6.40;81.70;;;;;;5062434;28;20230;-72
2024/01/22 00:09:26;;;;;;;8.32;4.40;;;6.40;82.30;;;;;;5072044;28;20555;-72
2024/01/22 00:12:12;;;;;;;7.55;4.25;;;6.30;83.90;;;;;;5061277;28;20365;-72
2024/01/22 00:14:57;;;;;;;5.50;4.00;;;6.30;85.50;;;;;;5069429;28;20252;-72
2024/01/22 00:17:43;;;;;;;8.80;3.78;;;6.30;86.70;;;;;;5055278;28;20272;-72
2024/01/22 00:20:30;;;;;;;17.95;4.75;;;6.30;87.00;;;;;;5066612;28;20213;-72
2024/01/22 00:23:15;;;;;;;8.73;4.22;;;6.30;87.50;;;;;;5062049;28;20209;-72
2024/01/22 00:26:01;;;;;;;19.77;4.50;;;6.30;89.50;;;;;;5069268;28;20274;-72
2024/01/22 00:28:47;;;;;;;8.20;4.72;;;6.30;90.60;;;;;;5059817;28;20214;-72
2024/01/22 00:31:32;;;;;;;5.80;3.90;;;6.30;91.30;;;;;;5066049;28;20233;-72
2024/01/22 00:34:18;;;;;;;14.15;5.20;;;6.30;92.50;;;;;;5062255;28;20205;-72
2024/01/22 00:37:05;;;;;;;10.70;4.60;;;6.30;92.10;;;;;;5062856;28;20209;-72
2024/01/22 00:39:55;;;;;;;6.82;3.60;;;6.40;90.60;;;;;;5061347;28;20226;-72
2024/01/22 00:42:42;;;;;;;14.00;3.85;;;6.40;90.60;;;;;;5066124;28;20956;-72
2024/01/22 00:45:28;;;;;;;6.38;4.03;;;6.40;90.60;;;;;;5069064;28;20208;-72
2024/01/22 00:48:14;;;;;;;8.75;3.97;;;6.30;90.60;;;;;;5057736;28;20294;-72
2024/01/22 00:50:59;;;;;;;8.75;4.05;;;6.30;90.80;;;;;;5066415;28;20276;-72
2024/01/22 00:53:47;;;;;;;8.27;4.10;;;6.30;91.20;;;;;;5059985;28;20700;-72
2024/01/22 00:56:33;;;;;;;6.75;4.25;;;6.20;90.70;;;;;;5069218;28;20210;-72
2024/01/22 00:59:18;;;;;;;8.45;4.50;;;6.20;91.60;;;;;;5065576;28;20205;-72
2024/01/22 01:02:04;;;;;;;8.05;4.10;;;6.20;91.80;;;;;;5065811;28;20229;-72
2024/01/22 01:04:49;;;;;;;6.70;3.90;;;6.20;91.10;;;;;;5067959;28;20272;-72
2024/01/22 01:07:36;;;;;;;8.75;4.80;;;6.20;91.20;;;;;;5064617;28;20217;-72
2024/01/22 01:10:24;;;;;;;23.48;5.78;;;6.10;90.70;;;;;;5063077;28;20319;-72
2024/01/22 01:13:09;;;;;;;9.77;4.47;;;6.10;91.40;;;;;;5060628;28;20339;-72
2024/01/22 01:15:55;;;;;;;7.90;3.70;;;6.00;92.00;;;;;;5063686;28;20204;-73
2024/01/22 01:18:40;;;;;;;6.70;4.40;;;6.00;92.00;;;;;;5063496;28;20202;-72
2024/01/22 01:21:26;;;;;;;7.95;3.72;;;6.00;92.50;;;;;;5067523;28;20219;-72
2024/01/22 01:24:12;;;;;;;6.90;3.55;;;5.90;93.10;;;;;;5060687;28;20566;-72
2024/01/22 01:26:59;;;;;;;11.90;4.40;;;6.00;92.40;;;;;;5061749;28;20204;-72
2024/01/22 01:29:44;;;;;;;5.20;2.97;;;6.00;93.10;;;;;;5068645;28;20215;-71
2024/01/22 01:32:30;;;;;;;6.82;3.97;;;6.10;91.50;;;;;;5071401;28;20635;-72
2024/01/22 01:35:16;;;;;;;8.02;3.67;;;6.20;90.70;;;;;;5062199;28;20210;-71
2024/01/22 01:38:02;;;;;;;9.85;3.45;;;6.30;89.80;;;;;;5063473;28;20262;-72
2024/01/22 01:40:47;;;;;;;7.97;4.05;;;6.20;88.00;;;;;;5063062;28;20275;-72
2024/01/22 01:43:34;;;;;;;8.50;3.95;;;6.20;88.70;;;;;;5068142;28;20204;-71
2024/01/22 01:46:19;;;;;;;6.07;3.45;;;6.30;86.80;;;;;;5065585;28;20332;-72
2024/01/22 01:49:05;;;;;;;6.47;3.45;;;6.20;87.30;;;;;;5065732;28;20737;-72
2024/01/22 01:51:51;;;;;;;6.40;3.95;;;6.20;87.10;;;;;;5067306;28;20584;-72
2024/01/22 01:54:37;;;;;;;6.22;3.17;;;6.20;87.40;;;;;;5061279;28;20255;-72
2024/01/22 01:57:23;;;;;;;5.53;3.28;;;6.20;86.10;;;;;;5064425;28;20757;-72
2024/01/22 02:00:11;;;;;;;8.07;4.18;;;6.20;88.50;;;;;;5061025;28;20415;-72
2024/01/22 02:02:57;;;;;;;6.80;3.05;;;6.20;86.70;;;;;;5064056;28;20207;-72
2024/01/22 02:05:42;;;;;;;5.50;3.63;;;6.20;87.00;;;;;;5058240;28;20257;-72
2024/01/22 02:08:28;;;;;;;4.97;3.10;;;6.20;87.20;;;;;;5060145;28;20470;-72
2024/01/22 02:11:14;;;;;;;9.60;3.28;;;6.20;88.40;;;;;;5061313;28;20736;-72
2024/01/22 02:14:00;;;;;;;4.20;2.50;;;6.30;88.90;;;;;;5068327;28;20212;-72
2024/01/22 02:16:47;;;;;;;5.43;3.08;;;6.30;87.40;;;;;;5054235;28;20425;-72
2024/01/22 02:19:32;;;;;;;5.83;3.10;;;6.40;86.90;;;;;;5057094;28;20337;-72
2024/01/22 02:22:18;;;;;;;7.90;3.95;;;6.40;87.60;;;;;;5062203;28;20450;-72
2024/01/22 02:25:06;;;;;;;5.43;2.30;;;6.50;86.60;;;;;;5057943;28;20660;-72
2024/01/22 02:27:51;;;;;;;9.15;2.70;;;6.60;85.40;;;;;;5059891;28;20847;-72
2024/01/22 02:30:37;;;;;;;3.83;2.45;;;6.60;87.40;;;;;;5058603;28;20681;-72
2024/01/22 02:33:22;;;;;;;6.40;2.70;;;6.70;90.40;;;;;;5063980;28;20205;-72
2024/01/22 02:36:08;;;;;;;8.23;2.50;;;6.80;92.20;;;;;;5059540;28;20591;-72
2024/01/22 02:38:54;;;;;;;3.20;2.00;;;6.80;93.80;;;;;;5062631;28;20197;-72
2024/01/22 02:41:41;;;;;;;4.90;2.90;;;6.80;95.50;;;;;;5065688;28;20721;-72
2024/01/22 02:44:26;;;;;;;8.50;2.63;;;6.90;95.90;;;;;;5067083;28;20427;-72
2024/01/22 02:47:12;;;;;;;2.70;1.90;;;7.00;96.00;;;;;;5063606;28;20426;-72
2024/01/22 02:49:57;;;;;;;5.87;2.17;;;7.10;96.50;;;;;;5065776;28;20491;-72
2024/01/22 02:52:43;;;;;;;4.55;2.30;;;7.10;96.90;;;;;;5063297;28;20460;-72
2024/01/22 02:55:29;;;;;;;6.03;2.63;;;7.00;97.20;;;;;;5065464;28;20209;-72
2024/01/22 02:58:16;;;;;;;5.30;3.00;;;7.10;98.30;;;;;;5063574;28;20442;-72
2024/01/22 03:01:01;;;;;;;4.10;2.00;;;7.10;99.80;;;;;;5067835;28;20587;-72
2024/01/22 03:03:47;;;;;;;4.00;2.20;;;7.10;99.90;;;;;;5062650;28;20421;-72
2024/01/22 03:06:33;;;;;;;5.87;2.53;;;7.20;99.90;;;;;;5058511;28;20424;-72
2024/01/22 03:09:18;;;;;;;6.00;2.90;;;7.20;99.90;;;;;;5064463;28;20473;-72
2024/01/22 03:12:04;;;;;;;9.10;2.43;;;7.10;99.90;;;;;;5068570;28;20522;-72
2024/01/22 03:14:51;;;;;;;5.83;1.87;;;7.10;99.90;;;;;;5066642;28;20436;-72
2024/01/22 03:17:37;;;;;;;11.63;2.20;;;7.40;99.90;;;;;;5059713;28;20421;-72
2024/01/22 03:20:22;;;;;;;3.70;2.00;;;7.40;99.90;;;;;;5064941;28;20425;-72
2024/01/22 03:23:08;;;;;;;3.47;1.83;;;7.50;99.90;;;;;;5069803;28;20998;-70
2024/01/22 03:25:54;;;;;;;5.77;1.50;;;7.50;99.90;;;;;;5064096;28;20433;-70
2024/01/22 03:28:41;;;;;;;3.45;1.98;;;7.60;99.90;;;;;;5070086;28;20995;-70
2024/01/22 03:31:32;;;;;;;8.03;1.80;;;7.60;99.90;;;;;;5068171;28;20225;-70
2024/01/22 03:34:18;;;;;;;4.23;1.70;;;7.70;99.90;;;;;;5068689;28;20421;-72
2024/01/22 03:37:03;;;;;;;3.27;1.47;;;7.70;99.90;;;;;;5066628;28;20437;-72
2024/01/22 03:39:49;;;;;;;5.10;1.63;;;7.90;99.90;;;;;;5065943;28;20440;-72
2024/01/22 03:42:35;;;;;;;2.33;1.43;;;7.90;99.90;;;;;;5072796;28;20452;-72
2024/01/22 03:45:20;;;;;;;3.43;1.70;;;8.00;99.90;;;;;;5067665;28;20517;-72
2024/01/22 03:48:08;;;;;;;4.97;1.60;;;8.00;99.90;;;;;;5061245;28;20476;-72
2024/01/22 03:50:54;;;;;;;7.10;1.73;;;8.00;99.90;;;;;;5071515;28;20529;-72
2024/01/22 03:53:40;;;;;;;2.97;1.47;;;8.00;99.90;;;;;;5070022;28;20486;-72
2024/01/22 03:56:26;;;;;;;3.03;1.90;;;8.00;99.50;;;;;;5068911;28;20453;-72
2024/01/22 03:59:12;;;;;;;3.90;1.83;;;7.90;99.40;;;;;;5066769;28;20469;-72
2024/01/22 04:01:57;;;;;;;5.33;1.80;;;7.90;99.50;;;;;;5071871;28;20842;-72
2024/01/22 04:04:44;;;;;;;6.43;2.00;;;7.90;99.70;;;;;;5060380;28;20420;-72
2024/01/22 04:07:30;;;;;;;3.60;1.90;;;7.90;99.00;;;;;;5070120;28;20432;-72
2024/01/22 04:10:16;;;;;;;3.47;1.53;;;7.90;98.80;;;;;;5069165;28;20433;-73
2024/01/22 04:13:01;;;;;;;3.60;1.60;;;7.80;99.30;;;;;;5064363;28;21130;-72
2024/01/22 04:15:50;;;;;;;8.30;2.60;;;7.90;99.00;;;;;;5065569;28;20432;-72
2024/01/22 04:18:36;;;;;;;3.03;1.93;;;7.80;99.80;;;;;;5063456;28;20532;-72
2024/01/22 04:21:24;;;;;;;5.10;2.13;;;7.80;99.90;;;;;;5068332;28;20832;-72
2024/01/22 04:24:09;;;;;;;3.37;1.47;;;7.90;99.20;;;;;;5071710;28;20436;-72
2024/01/22 04:26:55;;;;;;;7.67;2.40;;;7.90;99.30;;;;;;5071479;28;20434;-72
2024/01/22 04:29:41;;;;;;;3.03;1.60;;;7.90;99.40;;;;;;5059259;28;20835;-72
2024/01/22 04:32:26;;;;;;;4.57;1.70;;;8.00;98.40;;;;;;5069159;28;20846;-72
2024/01/22 04:35:12;;;;;;;5.60;1.90;;;7.90;98.50;;;;;;5068433;28;20210;-72
2024/01/22 04:37:59;;;;;;;8.50;1.90;;;7.80;98.00;;;;;;5064747;28;20417;-72
2024/01/22 04:40:45;;;;;;;3.77;1.63;;;7.90;98.20;;;;;;5072768;28;20424;-72
2024/01/22 04:43:31;;;;;;;3.60;1.83;;;7.90;97.60;;;;;;5071240;28;20797;-72
2024/01/22 04:46:16;;;;;;;5.23;1.43;;;7.90;97.70;;;;;;5068873;28;20434;-72
2024/01/22 04:49:02;;;;;;;7.10;2.00;;;7.90;96.40;;;;;;5071419;28;20840;-72
2024/01/22 04:51:47;;;;;;;8.60;1.80;;;8.00;96.80;;;;;;5060910;28;20575;-72
2024/01/22 04:54:34;;;;;;;5.80;3.10;;;8.00;96.20;;;;;;5071258;28;20563;-72
2024/01/22 04:57:20;;;;;;;3.83;1.65;;;8.00;96.50;;;;;;5066045;28;20438;-72
2024/01/22 05:00:07;;;;;;;4.07;1.50;;;8.10;96.80;;;;;;5070320;28;20568;-72
2024/01/22 05:02:53;;;;;;;3.13;1.57;;;8.30;96.60;;;;;;5070324;28;20558;-72
2024/01/22 05:05:38;;;;;;;6.97;2.00;;;8.40;96.40;;;;;;5058029;28;20424;-72
2024/01/22 05:08:24;;;;;;;2.47;1.27;;;8.50;96.50;;;;;;5062890;28;20480;-72
2024/01/22 05:11:11;;;;;;;2.53;1.40;;;8.60;94.60;;;;;;5065275;28;20463;-72
2024/01/22 05:13:57;;;;;;;6.00;1.80;;;8.80;93.40;;;;;;5071059;28;20949;-71
2024/01/22 05:16:43;;;;;;;8.13;1.87;;;8.80;93.20;;;;;;5070334;28;20436;-72
2024/01/22 05:19:29;;;;;;;4.67;2.63;;;8.80;93.70;;;;;;5064879;28;20810;-72
2024/01/22 05:22:15;;;;;;;3.60;2.00;;;8.70;93.40;;;;;;5068967;28;20574;-72
2024/01/22 05:25:01;;;;;;;2.73;1.40;;;8.70;93.70;;;;;;5070149;28;20791;-72
2024/01/22 05:27:48;;;;;;;2.47;1.30;;;8.70;91.40;;;;;;5070618;28;20484;-72
2024/01/22 05:30:34;;;;;;;2.97;1.40;;;8.70;90.80;;;;;;5070763;28;20934;-72
2024/01/22 05:33:20;;;;;;;2.60;1.40;;;8.70;85.60;;;;;;5068988;28;20432;-72
2024/01/22 05:36:06;;;;;;;4.43;1.50;;;8.80;84.70;;;;;;5063245;28;20439;-72
2024/01/22 05:38:51;;;;;;;3.47;1.80;;;8.80;84.70;;;;;;5070208;28;20428;-72
2024/01/22 05:41:37;;;;;;;4.50;2.10;;;8.80;84.30;;;;;;5063343;28;20799;-72
2024/01/22 05:44:25;;;;;;;6.80;1.83;;;8.80;80.40;;;;;;5069253;28;20423;-72
2024/01/22 05:47:10;;;;;;;2.33;1.10;;;8.80;80.90;;;;;;5070120;28;20432;-72
2024/01/22 05:49:55;;;;;;;1.80;1.20;;;8.80;80.20;;;;;;5070864;28;21068;-72
2024/01/22 05:52:41;;;;;;;4.40;1.57;;;8.90;77.60;;;;;;5069947;28;20470;-72
2024/01/22 05:55:29;;;;;;;3.40;1.50;;;8.90;77.10;;;;;;5063611;28;20924;-72
2024/01/22 05:58:16;;;;;;;3.10;1.73;;;9.00;72.70;;;;;;5063041;28;20434;-72
2024/01/22 06:01:04;;;;;;;2.97;1.60;;;9.00;72.60;;;;;;5070635;28;20505;-72
2024/01/22 06:03:49;;;;;;;3.87;2.03;;;9.10;72.80;;;;;;5065059;28;21475;-72
2024/01/22 06:06:35;;;;;;;3.63;1.53;;;9.10;69.10;;;;;;5070118;28;20433;-72
2024/01/22 06:09:21;;;;;;;2.47;1.20;;;9.10;68.40;;;;;;5059862;28;20523;-72
2024/01/22 06:12:08;;;;;;;2.97;1.80;;;9.10;67.90;;;;;;5069348;28;20449;-72
2024/01/22 06:14:54;;;;;;;4.27;1.80;;;9.10;68.60;;;;;;5063954;28;20804;-72
2024/01/22 06:17:41;;;;;;;3.20;1.63;;;9.00;67.90;;;;;;5063932;28;20417;-72
2024/01/22 06:20:29;;;;;;;3.00;2.30;;;9.00;69.20;;;;;;5064319;28;20428;-72
2024/01/22 06:23:14;;;;;;;3.53;1.87;;;8.80;70.50;;;;;;5066481;28;20433;-72
2024/01/22 06:26:00;;;;;;;3.40;2.17;;;8.70;70.10;;;;;;5070053;28;20794;-72
2024/01/22 06:28:47;;;;;;;3.90;1.90;;;8.70;72.50;;;;;;5057846;28;20466;-72
2024/01/22 06:31:33;;;;;;;3.30;1.63;;;8.70;71.80;;;;;;5069739;28;20445;-72
2024/01/22 06:34:20;;;;;;;4.57;1.90;;;8.70;72.70;;;;;;5069595;28;20560;-72
2024/01/22 06:37:05;;;;;;;4.57;1.77;;;8.70;71.90;;;;;;5070137;28;20426;-72
2024/01/22 06:39:52;;;;;;;3.33;1.93;;;8.70;73.00;;;;;;5070316;28;20428;-72
2024/01/22 06:42:38;;;;;;;6.40;1.60;;;8.70;71.20;;;;;;5070715;28;20473;-72
2024/01/22 06:45:23;;;;;;;3.90;1.67;;;8.80;71.80;;;;;;5070000;28;20434;-72
2024/01/22 06:48:11;;;;;;;3.20;1.60;;;8.80;71.10;;;;;;5069496;28;20948;-72
2024/01/22 06:50:58;;;;;;;3.53;1.73;;;8.90;70.70;;;;;;5061432;28;20829;-72
2024/01/22 06:53:44;;;;;;;3.00;1.27;;;9.00;70.10;;;;;;5068028;28;20420;-72
2024/01/22 06:56:29;;;;;;;5.43;1.60;;;9.00;69.20;;;;;;5069933;28;20796;-72
2024/01/22 06:59:15;;;;;;;4.27;1.80;;;9.10;69.00;;;;;;5070250;28;20919;-72
2024/01/22 07:02:01;;;;;;;2.77;1.47;;;9.10;66.70;;;;;;5070484;28;20453;-72
2024/01/22 07:04:47;;;;;;;5.80;1.63;;;9.20;65.70;;;;;;5070867;28;20433;-72
2024/01/22 07:07:35;;;;;;;2.53;1.40;;;9.10;66.60;;;;;;5065332;28;20795;-72
2024/01/22 07:10:21;;;;;;;5.13;1.40;;;9.20;65.50;;;;;;5058410;28;20481;-72
2024/01/22 07:13:08;;;;;;;4.57;1.33;;;9.30;65.40;;;;;;5058709;28;20521;-72
2024/01/22 07:15:53;;;;;;;3.73;1.40;;;9.30;65.30;;;;;;5050751;28;20944;-72
2024/01/22 07:18:39;;;;;;;5.90;1.53;;;9.30;64.30;;;;;;5059972;28;20495;-72
2024/01/22 07:21:25;;;;;;;8.23;3.00;;;9.20;63.70;;;;;;5056122;28;20449;-72
2024/01/22 07:24:12;;;;;;;6.40;1.80;;;9.20;61.80;;;;;;5066292;28;20563;-72
2024/01/22 07:26:57;;;;;;;3.73;1.80;;;9.30;58.50;;;;;;5051586;28;20445;-72
2024/01/22 07:29:43;;;;;;;7.20;1.70;;;9.30;59.40;;;;;;5052085;28;20464;-72
2024/01/22 07:32:29;;;;;;;3.87;1.40;;;9.30;59.30;;;;;;5058862;28;20598;-72
2024/01/22 07:35:15;;;;;;;4.60;1.20;;;9.30;60.70;;;;;;5060105;28;20844;-72
2024/01/22 07:38:01;;;;;;;4.33;1.77;;;9.20;58.70;;;;;;5055351;28;20432;-72
2024/01/22 07:40:48;;;;;;;2.50;1.50;;;9.10;59.40;;;;;;5056576;28;20433;-72
2024/01/22 07:43:34;;;;;;;5.77;1.67;;;9.20;58.00;;;;;;5043165;28;20448;-72
2024/01/22 07:46:20;;;;;;;10.70;1.30;;;9.10;59.50;;;;;;5051341;28;20433;-72
2024/01/22 07:49:07;;;;;;;3.90;1.67;;;9.10;61.90;;;;;;5051399;28;20885;-72
2024/01/22 07:51:53;;;;;;;2.20;1.40;;;9.10;64.60;;;;;;5062225;28;20456;-72
2024/01/22 07:54:38;;;;;;;7.07;1.63;;;9.10;66.00;;;;;;5047818;28;20430;-72
2024/01/22 07:57:25;;;;;;;4.20;1.50;;;9.00;66.60;;;;;;5055330;28;20501;-72
2024/01/22 08:00:12;;;;;;;2.83;1.70;;;9.00;68.30;;;;;;5062883;28;20428;-72
2024/01/22 08:02:57;;;;;;;4.50;1.53;;;9.00;69.20;;;;;;5059364;28;20778;-72
2024/01/22 08:05:43;;;;;;;2.97;1.57;;;9.00;68.70;;;;;;5056801;28;20430;-72
2024/01/22 08:08:29;;;;;;;8.37;1.73;;;9.00;68.90;;;;;;5062966;28;20429;-72
2024/01/22 08:11:15;;;;;;;3.30;1.40;;;9.00;69.50;;;;;;5054983;28;20500;-72
2024/01/22 08:14:02;;;;;;;3.27;1.47;;;9.00;70.80;;;;;;5061438;28;20813;-72
2024/01/22 08:16:49;;;;;;;6.20;1.70;;;9.00;69.50;;;;;;5048974;28;20429;-72
2024/01/22 08:19:35;;;;;;;4.63;1.93;;;9.00;72.60;;;;;;5056700;28;20541;-72
2024/01/22 08:22:20;;;;;;;2.80;1.43;;;8.90;77.10;;;;;;5060477;28;20980;-72
2024/01/22 08:25:06;;;;;;;3.38;1.77;;;8.90;80.30;;;;;;5054959;28;20441;-72
2024/01/22 08:27:52;;;;;;;2.60;1.53;;;8.80;81.60;;;;;;5059958;28;20207;-72
2024/01/22 08:30:39;;;;;;;2.27;1.17;;;8.70;84.60;;;;;;5061799;28;20952;-72
2024/01/22 08:33:24;;;;;;;4.13;1.33;;;8.60;88.80;;;;;;5062644;28;20429;-72
2024/01/22 08:36:10;;;;;;;4.03;1.80;;;8.60;91.40;;;;;;5055520;28;20799;-72
2024/01/22 08:38:56;;;;;;;7.10;2.10;;;8.50;94.00;;;;;;5057362;28;20429;-72
2024/01/22 08:41:41;;;;;;;3.43;1.93;;;8.50;97.00;;;;;;5061475;28;20450;-72
2024/01/22 08:44:27;;;;;;;6.33;1.90;;;8.40;99.60;;;;;;5064996;28;20432;-72
2024/01/22 08:47:14;;;;;;;4.10;2.00;;;8.30;99.90;;;;;;5064757;28;20448;-72
2024/01/22 08:50:00;;;;;;;6.67;1.70;;;8.10;99.90;;;;;;5057801;28;20471;-72
2024/01/22 08:52:46;;;;;;;6.80;2.20;;;7.90;99.90;;;;;;5070041;28;20441;-72
2024/01/22 08:55:32;;;;;;;3.43;1.70;;;7.80;99.90;;;;;;5063644;28;20542;-72
2024/01/22 08:58:18;;;;;;;5.37;2.10;;;7.60;99.90;;;;;;5057175;28;20434;-72
2024/01/22 09:01:05;;;;;;;6.50;1.90;;;7.60;99.90;;;;;;5060504;28;20452;-72
2024/01/22 09:03:52;;;;;;;3.53;1.90;;;7.50;99.90;;;;;;5047495;28;20211;-72
2024/01/22 09:06:38;;;;;;;6.43;2.20;;;7.50;99.90;;;;;;5053254;28;20420;-72
2024/01/22 09:09:23;;;;;;;4.27;2.00;;;7.40;99.90;;;;;;5051870;28;20710;-71
2024/01/22 09:12:09;;;;;;;5.45;2.05;;;7.40;99.90;;;;;;5049190;28;21098;-71
2024/01/22 09:14:55;;;;;;;3.40;1.60;;;7.50;99.90;;;;;;5054228;28;20244;-71
2024/01/22 09:17:40;;;;;;;4.83;2.30;;;7.50;99.90;;;;;;5055342;28;20427;-71
2024/01/22 09:20:28;;;;;;;5.70;1.73;;;7.50;99.90;;;;;;5052451;28;20943;-71
2024/01/22 09:23:13;;;;;;;7.50;2.53;;;7.50;99.90;;;;;;5050677;28;20994;-71
2024/01/22 09:25:59;;;;;;;3.47;1.70;;;7.50;99.90;;;;;;5055523;28;20425;-72
2024/01/22 09:28:45;;;;;;;2.60;2.10;;;7.50;99.90;;;;;;5045233;28;20252;-71
2024/01/22 09:31:31;;;;;;;3.53;2.03;;;7.60;99.90;;;;;;5051093;28;20453;-71
2024/01/22 09:34:17;;;;;;;4.40;2.43;;;7.60;99.90;;;;;;5050234;28;20790;-71
2024/01/22 09:37:04;;;;;;;5.90;2.70;;;7.70;99.90;;;;;;5057676;28;20428;-71
2024/01/22 09:39:50;;;;;;;4.07;1.73;;;7.70;99.90;;;;;;5047903;28;20441;-71
2024/01/22 09:42:36;;;;;;;4.70;1.73;;;7.70;99.90;;;;;;5050473;28;20551;-70
2024/01/22 09:45:22;;;;;;;5.18;2.05;;;7.70;99.90;;;;;;5052830;28;20215;-71
2024/01/22 09:48:09;;;;;;;4.63;2.50;;;7.70;99.90;;;;;;5050575;28;20521;-71
2024/01/22 09:50:55;;;;;;;5.93;1.90;;;7.70;99.90;;;;;;5062109;28;20472;-71
2024/01/22 09:53:46;;;;;;;3.30;2.00;;;7.70;99.90;;;;;;5054839;28;20418;-71
2024/01/22 09:56:33;;;;;;;5.10;2.13;;;7.80;99.90;;;;;;5059037;28;20436;-71
2024/01/22 09:59:21;;;;;;;7.30;1.90;;;7.80;99.90;;;;;;5055550;28;20443;-71
2024/01/22 10:02:07;;;;;;;3.50;2.20;;;7.80;99.90;;;;;;5051428;28;20450;-71
2024/01/22 10:04:54;;;;;;;4.00;2.08;;;7.80;99.90;;;;;;5049452;28;20422;-71
2024/01/22 10:07:39;;;;;;;4.30;1.80;;;7.80;99.90;;;;;;5054101;28;20575;-70
2024/01/22 10:10:26;;;;;;;3.88;2.00;;;7.80;99.90;;;;;;5058377;28;20476;-70
2024/01/22 10:13:12;;;;;;;4.73;2.23;;;7.90;99.90;;;;;;5054601;28;20209;-71
2024/01/22 10:16:10;;;;;;;6.67;2.90;;;7.90;99.90;;;;;;5049985;28;20790;-69
2024/01/22 10:18:57;;;;;;;3.77;2.23;;;8.00;99.90;;;;;;5058837;28;20816;-71
2024/01/22 10:21:42;;;;;;;12.20;2.00;;;8.10;99.90;;;;;;5059480;28;20535;-70
2024/01/22 10:24:30;;;;;;;3.90;2.47;;;8.10;99.90;;;;;;5062655;28;20522;-70
2024/01/22 10:27:17;;;;;;;5.90;3.00;;;8.10;99.90;;;;;;5058278;28;20428;-71
2024/01/22 10:30:10;;;;;;;4.90;3.03;;;8.10;99.90;;;;;;5053904;28;20485;-71
2024/01/22 10:33:12;;;;;;;5.93;2.30;;;8.10;99.90;;;;;;5048456;28;20429;-71
2024/01/22 10:36:13;;;;;;;4.37;2.47;;;8.20;99.90;;;;;;5064051;28;20432;-71
2024/01/22 10:39:04;;;;;;;4.90;2.03;;;8.20;99.90;;;;;;5051403;28;20432;-71
2024/01/22 10:41:49;;;;;;;4.13;1.97;;;8.30;99.90;;;;;;5060445;28;20449;-71
2024/01/22 10:44:37;;;;;;;3.40;1.73;;;8.30;99.90;;;;;;5060025;28;20539;-71
2024/01/22 10:47:23;;;;;;;5.30;2.17;;;8.40;99.90;;;;;;5053643;28;20425;-71
2024/01/22 10:50:10;;;;;;;3.00;1.53;;;8.40;99.90;;;;;;5051720;28;20552;-71
2024/01/22 10:52:57;;;;;;;3.20;1.83;;;8.40;99.90;;;;;;5054803;28;20456;-68
2024/01/22 10:55:50;;;;;;;3.80;1.90;;;8.40;99.90;;;;;;5053841;28;21828;-68
2024/01/22 10:58:41;;;;;;;3.37;2.13;;;8.40;99.90;;;;;;5058147;28;20448;-68
2024/01/22 11:01:29;;;;;;;4.37;2.63;;;8.40;99.90;;;;;;5055285;28;20442;-68
2024/01/22 11:04:22;;;;;;;7.37;3.03;;;8.30;99.90;;;;;;5054254;28;20537;-68
2024/01/22 11:07:10;;;;;;;3.80;1.67;;;8.30;99.90;;;;;;5055896;28;20430;-68
2024/01/22 11:09:59;;;;;;;6.33;2.30;;;8.30;99.90;;;;;;5049984;28;20480;-68
2024/01/22 11:12:50;;;;;;;2.97;1.63;;;8.40;99.90;;;;;;5054107;28;20561;-69
2024/01/22 11:15:36;;;;;;;7.10;1.83;;;8.40;99.90;;;;;;5056148;28;20498;-69
2024/01/22 11:18:23;;;;;;;2.70;2.00;;;8.40;99.90;;;;;;5054511;28;20431;-68
2024/01/22 11:21:21;;;;;;;6.40;2.43;;;8.50;99.90;;;;;;5058438;28;20521;-71
2024/01/22 11:24:13;;;;;;;3.10;2.13;;;8.60;99.90;;;;;;5054841;28;20728;-68
2024/01/22 11:27:04;;;;;;;4.03;2.27;;;8.70;99.90;;;;;;5063586;28;20429;-68
2024/01/22 11:29:50;;;;;;;3.83;2.13;;;8.80;99.90;;;;;;5054787;28;20473;-68
2024/01/22 11:32:36;;;;;;;2.60;1.60;;;8.90;99.90;;;;;;5058768;28;20453;-69
2024/01/22 11:35:35;;;;;;;5.47;2.20;;;9.00;99.90;;;;;;5062431;28;20437;-69
2024/01/22 11:38:50;;;;;;;5.60;1.50;;;9.10;99.90;;;;;;5057805;28;20439;-69
2024/01/22 11:41:40;;;;;;;3.50;1.60;;;9.20;99.90;;;;;;5062517;28;20543;-68
2024/01/22 11:44:27;;;;;;;2.10;1.83;;;9.40;99.90;;;;;;5072691;28;20484;-68
2024/01/22 11:47:13;;;;;;;2.63;1.83;;;9.40;99.90;;;;;;5059122;28;20439;-68
2024/01/22 11:50:04;;;;;;;3.23;2.10;;;9.40;99.90;;;;;;5060186;28;20949;-68
2024/01/22 11:52:51;;;;;;;3.33;1.73;;;9.50;99.90;;;;;;5063759;28;20446;-68
2024/01/22 11:55:38;;;;;;;4.30;1.67;;;9.50;99.90;;;;;;5058632;28;20440;-68
2024/01/22 11:58:24;;;;;;;2.20;1.20;;;9.50;99.90;;;;;;5067193;28;20424;-68
2024/01/22 12:01:11;;;;;;;3.90;1.67;;;9.60;99.90;;;;;;5059358;28;21052;-68
2024/01/22 12:04:08;;;;;;;4.50;1.87;;;9.60;99.90;;;;;;5063795;28;20911;-68
2024/01/22 12:06:54;;;;;;;3.80;1.80;;;9.50;99.90;;;;;;5054273;28;20795;-68
2024/01/22 12:09:41;;;;;;;3.23;2.07;;;9.60;99.90;;;;;;5064615;28;20430;-68
2024/01/22 12:12:26;;;;;;;3.20;1.40;;;9.60;99.90;;;;;;5055231;28;20509;-69
2024/01/22 12:15:12;;;;;;;2.40;1.70;;;9.50;99.90;;;;;;5052736;28;20441;-68
2024/01/22 12:17:58;;;;;;;2.60;1.43;;;9.50;99.90;;;;;;5056162;28;20442;-68
2024/01/22 12:20:44;;;;;;;2.80;1.60;;;9.50;99.90;;;;;;5053172;28;20441;-68
2024/01/22 12:23:30;;;;;;;2.83;1.40;;;9.50;99.90;;;;;;5051466;28;20470;-68
2024/01/22 12:26:23;;;;;;;4.07;1.53;;;9.50;99.90;;;;;;5057412;28;20496;-68
2024/01/22 12:29:23;;;;;;;5.07;1.53;;;9.50;99.90;;;;;;5054148;28;20497;-68
2024/01/22 12:32:11;;;;;;;3.40;1.80;;;9.50;99.90;;;;;;5057250;28;20546;-68
2024/01/22 12:34:57;;;;;;;5.10;1.50;;;9.60;99.90;;;;;;5060321;28;20431;-68
2024/01/22 12:37:43;;;;;;;2.63;1.47;;;9.60;99.90;;;;;;5057866;28;20436;-68
2024/01/22 12:40:29;;;;;;;3.63;1.60;;;9.70;99.90;;;;;;5061022;28;20426;-68
2024/01/22 12:43:16;;;;;;;3.10;1.80;;;9.80;99.90;;;;;;5065934;28;20434;-68
2024/01/22 12:46:06;;;;;;;7.03;2.00;;;9.80;99.90;;;;;;5053218;28;20792;-68
2024/01/22 12:48:55;;;;;;;6.10;1.80;;;9.80;99.90;;;;;;5061153;28;21228;-68
2024/01/22 12:51:40;;;;;;;2.33;1.70;;;9.80;99.90;;;;;;5059910;28;20579;-68
2024/01/22 12:54:26;;;;;;;6.40;2.10;;;9.80;99.90;;;;;;5062961;28;20442;-68
2024/01/22 12:57:11;;;;;;;2.93;1.50;;;9.80;99.90;;;;;;5062778;28;20430;-68
2024/01/22 12:59:59;;;;;;;2.30;1.50;;;9.90;99.90;;;;;;5064670;28;20431;-68
2024/01/22 13:02:44;;;;;;;5.83;2.37;;;9.90;99.90;;;;;;5056589;28;20442;-68
2024/01/22 13:05:30;;;;;;;4.20;1.83;;;9.90;99.90;;;;;;5059740;28;20445;-68
2024/01/22 13:08:15;;;;;;;2.77;1.60;;;10.00;99.90;;;;;;5059120;28;21038;-68
2024/01/22 13:11:01;;;;;;;2.80;1.60;;;10.00;99.90;;;;;;5050854;28;20583;-68
2024/01/22 13:13:47;;;;;;;3.03;1.87;;;10.00;99.90;;;;;;5057182;28;20975;-68
2024/01/22 13:16:34;;;;;;;3.50;1.90;;;10.00;99.90;;;;;;5060135;28;20939;-68
2024/01/22 13:19:20;;;;;;;3.03;1.60;;;10.00;99.90;;;;;;5062806;28;20431;-68
2024/01/22 13:22:06;;;;;;;2.13;1.10;;;10.00;99.90;;;;;;5056897;28;20449;-68
2024/01/22 13:24:52;;;;;;;3.30;1.50;;;10.00;99.90;;;;;;5061910;28;20437;-68
2024/01/22 13:27:38;;;;;;;2.73;1.70;;;10.10;99.90;;;;;;5075457;22;20841;-71
2024/01/22 13:30:24;;;;;;;3.07;1.80;;;10.10;99.90;;;;;;5058971;28;20482;-71
2024/01/22 13:33:11;;;;;;;5.10;2.13;;;10.10;99.90;;;;;;5054397;28;20960;-70
2024/01/22 13:35:57;;;;;;;4.97;1.73;;;10.10;99.90;;;;;;5064638;28;20836;-71
2024/01/22 13:38:42;;;;;;;11.10;3.80;;;10.10;99.90;;;;;;5057798;28;20428;-71
2024/01/22 13:41:29;;;;;;;9.93;3.57;;;10.20;99.90;;;;;;5063254;28;20442;-70
2024/01/22 13:44:16;;;;;;;4.43;2.20;;;10.20;99.90;;;;;;5049234;28;21099;-72
2024/01/22 13:47:01;;;;;;;4.40;2.33;;;10.30;99.90;;;;;;5059469;28;20457;-70
2024/01/22 13:49:49;;;;;;;5.40;1.60;;;10.20;99.90;;;;;;5056924;28;20431;-71
2024/01/22 13:52:35;;;;;;;16.40;9.40;;;10.30;99.90;;;;;;5055943;28;20473;-70
2024/01/22 13:55:21;;;;;;;6.90;1.80;;;10.30;99.90;;;;;;5056121;28;20434;-71
2024/01/22 13:58:07;;;;;;;5.47;1.87;;;10.30;99.90;;;;;;5048626;28;20450;-71
2024/01/22 14:00:53;;;;;;;6.40;3.30;;;10.30;99.90;;;;;;5053027;28;20937;-70
2024/01/22 14:03:39;;;;;;;3.57;1.80;;;10.30;99.90;;;;;;5059427;28;20422;-71
2024/01/22 14:06:27;;;;;;;2.30;1.30;;;10.30;99.90;;;;;;5062335;28;20493;-71
2024/01/22 14:09:14;;;;;;;2.33;1.33;;;10.30;99.90;;;;;;5058234;28;20439;-71
2024/01/22 14:11:59;;;;;;;2.90;1.43;;;10.30;99.90;;;;;;5054600;28;20995;-71
2024/01/22 14:14:46;;;;;;;3.30;1.50;;;10.30;99.90;;;;;;5055763;28;20450;-70
2024/01/22 14:17:32;;;;;;;4.57;1.07;;;10.30;99.90;;;;;;5064355;28;20970;-71
2024/01/22 14:20:17;;;;;;;3.60;1.60;;;10.30;99.90;;;;;;5054065;28;20948;-71
2024/01/22 14:23:07;;;;;;;4.53;1.40;;;10.20;99.90;;;;;;5060211;28;20435;-71
2024/01/22 14:25:53;;;;;;;2.83;1.50;;;10.30;99.90;;;;;;5058971;28;20512;-71
2024/01/22 14:28:38;;;;;;;1.53;0.97;;;10.40;99.90;;;;;;5048992;28;20810;-72
2024/01/22 14:31:24;;;;;;;2.40;1.20;;;10.50;99.90;;;;;;5059297;28;20972;-72
2024/01/22 14:34:10;;;;;;;2.50;1.47;;;10.50;99.90;;;;;;5059070;28;20431;-72
2024/01/22 14:36:55;;;;;;;2.20;1.17;;;10.40;99.90;;;;;;5062504;28;20454;-72